createdAt,value
2022-07-31T00:01:41.582Z,19.58
2022-07-31T00:04:10.878Z,19.69
2022-07-31T00:06:44.034Z,19.70
2022-07-31T00:09:52.317Z,19.83
2022-07-31T00:12:07.421Z,19.52
2022-07-31T00:14:37.984Z,19.53
2022-07-31T00:17:07.015Z,19.68
2022-07-31T00:19:37.557Z,19.69
2022-07-31T00:22:06.837Z,19.63
2022-07-31T00:24:38.514Z,19.72
2022-07-31T00:27:08.182Z,19.69
2022-07-31T00:29:39.433Z,19.73
2022-07-31T00:32:08.600Z,19.72
2022-07-31T00:34:37.596Z,19.58
2022-07-31T00:37:07.519Z,19.35
2022-07-31T00:39:39.986Z,19.27
2022-07-31T00:42:18.905Z,19.00
2022-07-31T00:44:53.472Z,18.81
2022-07-31T00:47:25.603Z,19.44
2022-07-31T00:50:07.971Z,19.03
2022-07-31T00:52:37.091Z,19.31
2022-07-31T00:55:10.791Z,19.15
2022-07-31T00:57:39.948Z,19.04
2022-07-31T01:00:16.455Z,19.33
2022-07-31T01:02:46.449Z,19.18
2022-07-31T01:05:19.388Z,19.47
2022-07-31T01:07:51.816Z,19.30
2022-07-31T01:10:40.433Z,19.36
2022-07-31T01:13:22.173Z,19.58
2022-07-31T01:15:55.689Z,19.50
2022-07-31T01:18:27.351Z,19.54
2022-07-31T01:20:59.428Z,19.19
2022-07-31T01:27:28.176Z,18.90
2022-07-31T01:30:05.782Z,19.30
2022-07-31T01:32:57.982Z,19.45
2022-07-31T01:35:46.827Z,19.05
2022-07-31T01:38:25.107Z,19.19
2022-07-31T01:41:02.600Z,18.86
2022-07-31T01:43:40.743Z,19.33
2022-07-31T01:46:21.851Z,19.33
2022-07-31T01:48:51.821Z,19.16
2022-07-31T01:51:27.227Z,19.34
2022-07-31T01:53:57.792Z,18.90
2022-07-31T01:56:31.505Z,18.82
2022-07-31T01:59:20.713Z,18.93
2022-07-31T02:01:58.425Z,18.96
2022-07-31T02:04:36.836Z,18.43
2022-07-31T02:07:10.521Z,18.78
2022-07-31T02:09:52.319Z,19.08
2022-07-31T02:12:33.103Z,19.23
2022-07-31T02:15:07.259Z,18.85
2022-07-31T02:17:39.636Z,19.28
2022-07-31T02:20:23.423Z,18.57
2022-07-31T02:22:54.456Z,18.58
2022-07-31T02:25:23.716Z,18.76
2022-07-31T02:27:58.628Z,18.88
2022-07-31T02:30:39.015Z,18.85
2022-07-31T02:33:13.847Z,19.03
2022-07-31T02:36:04.964Z,19.10
2022-07-31T02:38:43.033Z,18.99
2022-07-31T02:41:14.388Z,18.97
2022-07-31T02:43:44.536Z,19.07
2022-07-31T02:46:15.395Z,19.18
2022-07-31T02:48:49.636Z,18.85
2022-07-31T02:51:19.184Z,18.27
2022-07-31T02:53:48.786Z,18.20
2022-07-31T02:56:21.304Z,18.60
2022-07-31T02:58:50.535Z,18.71
2022-07-31T03:01:22.604Z,18.63
2022-07-31T03:03:53.729Z,19.06
2022-07-31T03:06:37.496Z,18.42
2022-07-31T03:09:06.895Z,18.77
2022-07-31T03:11:38.706Z,18.86
2022-07-31T03:14:10.519Z,18.85
2022-07-31T03:16:41.299Z,18.49
2022-07-31T03:19:14.871Z,18.54
2022-07-31T03:21:45.254Z,18.82
2022-07-31T03:24:18.061Z,18.86
2022-07-31T03:26:47.558Z,19.05
2022-07-31T03:29:41.686Z,18.86
2022-07-31T03:32:06.810Z,18.85
2022-07-31T03:34:37.950Z,18.88
2022-07-31T03:37:10.474Z,18.60
2022-07-31T03:39:39.940Z,18.57
2022-07-31T03:42:18.591Z,18.71
2022-07-31T03:44:49.878Z,18.76
2022-07-31T03:47:19.174Z,18.61
2022-07-31T03:49:50.924Z,18.27
2022-07-31T03:52:20.147Z,18.28
2022-07-31T03:54:49.525Z,18.37
2022-07-31T03:57:27.017Z,17.97
2022-07-31T03:59:59.090Z,18.45
2022-07-31T04:02:32.950Z,18.26
2022-07-31T04:05:10.072Z,18.53
2022-07-31T04:07:42.089Z,18.61
2022-07-31T04:10:12.763Z,18.67
2022-07-31T04:12:41.969Z,18.57
2022-07-31T04:15:11.924Z,18.80
2022-07-31T04:17:44.451Z,19.03
2022-07-31T04:20:15.684Z,18.97
2022-07-31T04:22:44.945Z,19.05
2022-07-31T04:25:18.582Z,18.96
2022-07-31T04:27:48.156Z,19.12
2022-07-31T04:30:20.551Z,18.98
2022-07-31T04:32:50.126Z,19.21
2022-07-31T04:35:22.632Z,19.23
2022-07-31T04:37:52.055Z,19.15
2022-07-31T04:40:21.837Z,19.06
2022-07-31T04:42:51.296Z,19.13
2022-07-31T04:45:20.665Z,19.30
2022-07-31T04:47:49.711Z,18.97
2022-07-31T04:50:22.673Z,18.96
2022-07-31T04:52:52.366Z,19.22
2022-07-31T04:55:21.958Z,19.27
2022-07-31T04:57:51.847Z,19.25
2022-07-31T05:00:22.934Z,19.22
2022-07-31T05:02:52.343Z,19.37
2022-07-31T05:05:23.360Z,19.46
2022-07-31T05:07:52.605Z,19.08
2022-07-31T05:10:46.314Z,18.57
2022-07-31T05:13:27.577Z,18.17
2022-07-31T05:15:57.001Z,18.88
2022-07-31T05:18:37.998Z,19.27
2022-07-31T05:21:10.837Z,19.39
2022-07-31T05:23:40.529Z,19.44
2022-07-31T05:26:12.270Z,19.64
2022-07-31T05:28:41.999Z,19.46
2022-07-31T05:31:14.972Z,19.54
2022-07-31T05:33:44.403Z,19.34
2022-07-31T05:36:19.911Z,18.90
2022-07-31T05:38:51.177Z,18.85
2022-07-31T05:41:20.555Z,18.62
2022-07-31T05:43:50.742Z,18.92
2022-07-31T05:46:20.612Z,19.20
2022-07-31T05:48:52.398Z,19.38
2022-07-31T05:51:23.101Z,19.20
2022-07-31T05:53:55.693Z,19.49
2022-07-31T05:56:29.297Z,19.65
2022-07-31T05:58:58.515Z,19.79
2022-07-31T06:01:30.341Z,20.00
2022-07-31T06:03:59.892Z,19.93
2022-07-31T06:06:32.607Z,19.82
2022-07-31T06:09:04.855Z,20.12
2022-07-31T06:11:34.497Z,19.90
2022-07-31T06:14:04.102Z,20.06
2022-07-31T06:16:33.239Z,20.12
2022-07-31T06:19:02.373Z,20.02
2022-07-31T06:21:33.160Z,20.21
2022-07-31T06:24:02.616Z,20.06
2022-07-31T06:26:35.622Z,20.07
2022-07-31T06:29:04.842Z,20.20
2022-07-31T06:31:36.159Z,20.35
2022-07-31T06:34:05.894Z,20.05
2022-07-31T06:36:36.404Z,20.25
2022-07-31T06:39:12.301Z,20.43
2022-07-31T06:41:48.621Z,20.33
2022-07-31T06:44:19.383Z,20.41
2022-07-31T06:46:52.068Z,20.51
2022-07-31T06:49:21.258Z,20.52
2022-07-31T06:51:54.761Z,20.53
2022-07-31T06:54:26.585Z,20.62
2022-07-31T06:56:56.803Z,20.64
2022-07-31T06:59:39.368Z,20.49
2022-07-31T07:02:10.638Z,20.58
2022-07-31T07:04:57.441Z,20.68
2022-07-31T07:07:31.549Z,20.71
2022-07-31T07:10:01.646Z,20.69
2022-07-31T07:12:31.248Z,20.80
2022-07-31T07:15:00.381Z,20.70
2022-07-31T07:17:29.981Z,20.81
2022-07-31T07:20:02.088Z,20.78
2022-07-31T07:22:32.879Z,20.74
2022-07-31T07:25:02.426Z,21.10
2022-07-31T07:27:31.556Z,20.95
2022-07-31T07:30:03.319Z,20.92
2022-07-31T07:32:32.992Z,20.97
2022-07-31T07:35:04.283Z,21.05
2022-07-31T07:37:39.116Z,21.04
2022-07-31T07:40:10.926Z,21.17
2022-07-31T07:42:43.350Z,21.27
2022-07-31T07:45:14.038Z,21.33
2022-07-31T07:48:05.264Z,21.27
2022-07-31T07:50:35.785Z,21.50
2022-07-31T07:53:08.313Z,21.43
2022-07-31T07:55:40.333Z,21.61
2022-07-31T07:58:12.014Z,21.60
2022-07-31T08:00:42.163Z,21.89
2022-07-31T08:03:48.855Z,21.83
2022-07-31T08:06:06.890Z,22.09
2022-07-31T08:08:43.895Z,21.99
2022-07-31T08:11:17.552Z,21.95
2022-07-31T08:13:50.910Z,22.16
2022-07-31T08:16:21.495Z,22.41
2022-07-31T08:18:51.710Z,22.25
2022-07-31T08:21:21.097Z,22.21
2022-07-31T08:23:54.857Z,22.19
2022-07-31T08:26:24.380Z,22.34
2022-07-31T08:29:00.493Z,22.34
2022-07-31T08:31:36.764Z,22.70
2022-07-31T08:34:06.506Z,22.96
2022-07-31T08:36:37.653Z,22.71
2022-07-31T08:39:08.412Z,22.86
2022-07-31T08:41:48.586Z,22.97
2022-07-31T08:44:18.114Z,23.12
2022-07-31T08:46:58.559Z,23.14
2022-07-31T08:49:31.524Z,23.06
2022-07-31T08:52:05.322Z,23.34
2022-07-31T08:54:37.065Z,23.55
2022-07-31T08:57:19.570Z,23.26
2022-07-31T08:59:52.486Z,23.39
2022-07-31T09:02:21.834Z,23.66
2022-07-31T09:04:52.757Z,23.67
2022-07-31T09:07:24.459Z,23.92
2022-07-31T09:09:55.761Z,24.05
2022-07-31T09:12:34.515Z,23.66
2022-07-31T09:15:05.059Z,23.55
2022-07-31T09:17:37.848Z,23.54
2022-07-31T09:20:20.868Z,23.97
2022-07-31T09:22:57.074Z,24.08
2022-07-31T09:25:29.206Z,23.87
2022-07-31T09:28:03.996Z,24.30
2022-07-31T09:30:55.841Z,24.32
2022-07-31T09:33:28.617Z,24.57
2022-07-31T09:35:59.314Z,24.54
2022-07-31T09:38:41.693Z,24.72
2022-07-31T09:41:55.887Z,24.43
2022-07-31T09:44:10.602Z,24.68
2022-07-31T09:46:48.303Z,24.84
2022-07-31T09:49:20.080Z,25.01
2022-07-31T09:51:49.582Z,24.72
2022-07-31T09:54:27.045Z,24.75
2022-07-31T09:57:02.338Z,24.91
2022-07-31T09:59:31.384Z,24.98
2022-07-31T10:02:02.401Z,25.02
2022-07-31T10:04:31.922Z,25.41
2022-07-31T10:07:05.059Z,25.26
2022-07-31T10:09:37.395Z,25.47
2022-07-31T10:12:16.768Z,25.11
2022-07-31T10:14:46.966Z,25.27
2022-07-31T10:17:36.112Z,25.25
2022-07-31T10:20:09.355Z,25.72
2022-07-31T10:22:48.163Z,25.60
2022-07-31T10:25:33.319Z,25.67
2022-07-31T10:28:04.851Z,25.50
2022-07-31T10:30:34.038Z,25.52
2022-07-31T10:33:17.533Z,25.74
2022-07-31T10:36:07.321Z,25.61
2022-07-31T10:38:45.511Z,26.06
2022-07-31T10:41:25.396Z,25.95
2022-07-31T10:44:02.475Z,26.25
2022-07-31T10:46:34.474Z,26.08
2022-07-31T10:49:08.733Z,26.19
2022-07-31T10:51:48.756Z,26.21
2022-07-31T10:54:18.648Z,26.42
2022-07-31T10:56:49.135Z,26.60
2022-07-31T10:59:31.753Z,26.66
2022-07-31T11:02:01.398Z,26.60
2022-07-31T11:04:33.311Z,26.85
2022-07-31T11:07:03.174Z,26.71
2022-07-31T11:09:32.587Z,26.85
2022-07-31T11:12:20.075Z,26.91
2022-07-31T11:14:50.650Z,27.10
2022-07-31T11:17:20.323Z,27.19
2022-07-31T11:20:21.439Z,27.47
2022-07-31T11:23:03.313Z,27.45
2022-07-31T11:25:36.046Z,27.62
2022-07-31T11:28:19.126Z,27.52
2022-07-31T11:30:57.753Z,27.50
2022-07-31T11:33:42.103Z,27.50
2022-07-31T11:36:15.979Z,27.70
2022-07-31T11:38:47.766Z,28.16
2022-07-31T11:41:17.279Z,28.32
2022-07-31T11:43:54.480Z,28.25
2022-07-31T11:46:28.443Z,28.64
2022-07-31T11:48:59.864Z,28.43
2022-07-31T11:51:31.382Z,28.51
2022-07-31T11:54:01.230Z,28.09
2022-07-31T11:56:31.265Z,28.30
2022-07-31T11:59:00.852Z,28.47
2022-07-31T12:01:31.999Z,28.71
2022-07-31T12:04:08.484Z,29.01
2022-07-31T12:06:39.773Z,29.12
2022-07-31T12:10:01.026Z,29.35
2022-07-31T12:11:59.879Z,29.33
2022-07-31T12:14:33.236Z,29.50
2022-07-31T12:17:05.970Z,29.73
2022-07-31T12:19:38.835Z,29.99
2022-07-31T12:22:16.298Z,30.14
2022-07-31T12:24:46.152Z,29.92
2022-07-31T12:27:17.618Z,30.45
2022-07-31T12:29:47.403Z,30.48
2022-07-31T12:32:27.126Z,30.60
2022-07-31T12:35:04.796Z,30.82
2022-07-31T12:37:45.266Z,30.47
2022-07-31T12:40:25.145Z,30.49
2022-07-31T12:42:54.589Z,31.09
2022-07-31T12:45:38.487Z,31.19
2022-07-31T12:48:09.323Z,31.44
2022-07-31T12:50:38.300Z,31.49
2022-07-31T12:53:07.629Z,31.38
2022-07-31T12:55:36.946Z,31.14
2022-07-31T12:58:05.986Z,31.24
2022-07-31T13:00:39.855Z,31.99
2022-07-31T13:03:11.356Z,32.09
2022-07-31T13:05:40.594Z,31.99
2022-07-31T13:08:09.968Z,32.11
2022-07-31T13:10:39.337Z,31.47
2022-07-31T13:13:08.875Z,31.08
2022-07-31T13:15:38.361Z,31.28
2022-07-31T13:18:09.418Z,31.10
2022-07-31T13:20:38.858Z,30.84
2022-07-31T13:23:08.080Z,30.46
2022-07-31T13:25:37.543Z,30.48
2022-07-31T13:28:07.083Z,30.56
2022-07-31T13:30:36.911Z,30.47
2022-07-31T13:33:06.552Z,30.33
2022-07-31T13:35:37.637Z,30.46
2022-07-31T13:38:07.053Z,30.25
2022-07-31T13:40:53.615Z,30.48
2022-07-31T13:43:23.200Z,30.69
2022-07-31T13:45:52.789Z,30.32
2022-07-31T13:48:22.132Z,29.96
2022-07-31T13:50:52.678Z,29.86
2022-07-31T13:53:22.053Z,29.75
2022-07-31T13:55:51.410Z,30.19
2022-07-31T13:58:20.574Z,30.52
2022-07-31T14:00:50.214Z,30.96
2022-07-31T14:03:21.155Z,31.04
2022-07-31T14:05:52.655Z,31.38
2022-07-31T14:08:33.040Z,31.49
2022-07-31T14:11:13.787Z,31.99
2022-07-31T14:13:44.777Z,31.82
2022-07-31T14:16:13.887Z,31.83
2022-07-31T14:18:42.608Z,31.46
2022-07-31T14:21:12.789Z,31.17
2022-07-31T14:23:46.476Z,31.69
2022-07-31T14:26:15.523Z,31.88
2022-07-31T14:28:45.098Z,31.90
2022-07-31T14:31:16.850Z,31.86
2022-07-31T14:33:46.018Z,31.99
2022-07-31T14:36:16.819Z,31.61
2022-07-31T14:38:45.887Z,31.10
2022-07-31T14:41:14.984Z,31.25
2022-07-31T14:43:44.263Z,30.80
2022-07-31T14:46:13.537Z,30.80
2022-07-31T14:48:42.293Z,31.06
2022-07-31T14:51:14.365Z,30.82
2022-07-31T14:53:45.521Z,30.54
2022-07-31T14:56:19.294Z,30.67
2022-07-31T14:58:58.909Z,30.74
2022-07-31T15:01:30.785Z,30.94
2022-07-31T15:04:00.413Z,30.79
2022-07-31T15:06:38.627Z,30.54
2022-07-31T15:09:21.275Z,30.35
2022-07-31T15:12:00.551Z,29.86
2022-07-31T15:14:31.272Z,29.32
2022-07-31T15:17:00.747Z,29.37
2022-07-31T15:19:30.044Z,29.72
2022-07-31T15:22:10.778Z,29.83
2022-07-31T15:24:50.020Z,29.69
2022-07-31T15:27:21.969Z,29.70
2022-07-31T15:30:05.765Z,29.67
2022-07-31T15:32:38.572Z,29.20
2022-07-31T15:35:10.722Z,29.63
2022-07-31T15:37:42.367Z,28.98
2022-07-31T15:40:17.074Z,28.94
2022-07-31T15:42:49.104Z,29.16
2022-07-31T15:45:20.392Z,29.14
2022-07-31T15:47:50.256Z,28.64
2022-07-31T15:50:20.925Z,28.59
2022-07-31T15:52:50.670Z,28.93
2022-07-31T15:55:22.583Z,28.70
2022-07-31T15:57:51.751Z,28.67
2022-07-31T16:00:21.953Z,28.39
2022-07-31T16:02:52.267Z,28.74
2022-07-31T16:05:36.032Z,28.81
2022-07-31T16:08:32.839Z,28.52
2022-07-31T16:10:58.713Z,28.90
2022-07-31T16:13:27.798Z,28.45
2022-07-31T16:15:56.681Z,28.66
2022-07-31T16:18:25.742Z,28.46
2022-07-31T16:20:54.789Z,28.14
2022-07-31T16:23:25.713Z,28.23
2022-07-31T16:25:55.373Z,28.24
2022-07-31T16:28:25.639Z,28.18
2022-07-31T16:30:54.709Z,28.33
2022-07-31T16:33:23.768Z,28.04
2022-07-31T16:35:52.904Z,27.96
2022-07-31T16:38:22.350Z,27.80
2022-07-31T16:40:53.546Z,27.81
2022-07-31T16:43:47.375Z,27.39
2022-07-31T16:46:13.841Z,27.66
2022-07-31T16:48:42.880Z,27.72
2022-07-31T16:51:11.892Z,27.75
2022-07-31T16:54:13.909Z,27.44
2022-07-31T16:56:32.324Z,27.27
2022-07-31T16:59:05.097Z,27.40
2022-07-31T17:01:58.183Z,27.19
2022-07-31T17:04:23.729Z,27.06
2022-07-31T17:06:52.997Z,27.03
2022-07-31T17:09:22.686Z,27.26
2022-07-31T17:11:56.423Z,27.02
2022-07-31T17:14:29.049Z,27.04
2022-07-31T17:16:59.450Z,26.90
2022-07-31T17:19:42.521Z,26.69
2022-07-31T17:22:17.510Z,26.79
2022-07-31T17:24:51.265Z,26.76
2022-07-31T17:27:22.768Z,26.65
2022-07-31T17:29:53.967Z,26.55
2022-07-31T17:32:22.910Z,26.46
2022-07-31T17:34:52.188Z,26.40
2022-07-31T17:37:21.944Z,26.42
2022-07-31T17:39:56.237Z,26.40
2022-07-31T17:42:27.862Z,26.48
2022-07-31T17:44:59.053Z,26.42
2022-07-31T17:47:28.110Z,26.29
2022-07-31T17:49:57.322Z,26.22
2022-07-31T17:52:26.437Z,26.23
2022-07-31T17:54:56.414Z,26.14
2022-07-31T17:57:29.401Z,26.10
2022-07-31T18:00:00.372Z,26.08
2022-07-31T18:02:29.584Z,25.96
2022-07-31T18:04:58.679Z,25.86
2022-07-31T18:07:28.495Z,25.82
2022-07-31T18:09:57.746Z,25.68
2022-07-31T18:12:26.913Z,25.60
2022-07-31T18:14:56.201Z,25.48
2022-07-31T18:17:28.478Z,25.43
2022-07-31T18:19:57.675Z,25.25
2022-07-31T18:22:27.110Z,25.16
2022-07-31T18:25:04.526Z,25.00
2022-07-31T18:27:33.764Z,24.97
2022-07-31T18:30:03.928Z,24.90
2022-07-31T18:32:36.438Z,24.80
2022-07-31T18:35:07.185Z,24.70
2022-07-31T18:37:36.334Z,24.64
2022-07-31T18:40:07.400Z,24.47
2022-07-31T18:42:36.564Z,24.47
2022-07-31T18:45:07.006Z,24.43
2022-07-31T18:47:37.740Z,24.32
2022-07-31T18:51:00.947Z,24.12
2022-07-31T18:52:57.362Z,24.11
2022-07-31T18:55:26.638Z,24.02
2022-07-31T18:57:57.729Z,23.92
2022-07-31T19:00:28.963Z,23.87
2022-07-31T19:02:59.639Z,23.77
2022-07-31T19:05:28.962Z,23.80
2022-07-31T19:07:58.268Z,23.66
2022-07-31T19:10:30.940Z,23.61
2022-07-31T19:13:01.094Z,23.61
2022-07-31T19:15:30.272Z,23.48
2022-07-31T19:18:02.136Z,23.44
2022-07-31T19:20:41.377Z,23.40
2022-07-31T19:23:22.135Z,23.39
2022-07-31T19:26:03.035Z,23.32
2022-07-31T19:28:35.432Z,23.31
2022-07-31T19:31:04.716Z,23.25
2022-07-31T19:33:38.106Z,23.25
2022-07-31T19:36:08.373Z,23.17
2022-07-31T19:38:44.454Z,23.11
2022-07-31T19:41:15.985Z,23.10
2022-07-31T19:43:45.873Z,23.07
2022-07-31T19:46:15.341Z,23.00
2022-07-31T19:48:47.838Z,22.94
2022-07-31T19:51:17.538Z,22.93
2022-07-31T19:53:47.114Z,22.89
2022-07-31T19:56:20.691Z,22.78
2022-07-31T19:58:51.240Z,22.75
2022-07-31T20:01:21.998Z,22.73
2022-07-31T20:03:57.401Z,22.67
2022-07-31T20:06:28.926Z,22.64
2022-07-31T20:08:58.788Z,22.57
2022-07-31T20:11:28.423Z,22.50
2022-07-31T20:13:57.627Z,22.41
2022-07-31T20:16:26.631Z,22.48
2022-07-31T20:18:57.113Z,22.44
2022-07-31T20:21:26.271Z,22.46
2022-07-31T20:24:04.248Z,22.48
2022-07-31T20:26:36.478Z,22.45
2022-07-31T20:29:06.112Z,22.48
2022-07-31T20:31:35.709Z,22.51
2022-07-31T20:34:06.322Z,22.52
2022-07-31T20:36:35.624Z,22.50
2022-07-31T20:39:05.094Z,22.46
2022-07-31T20:41:34.357Z,22.48
2022-07-31T20:44:12.487Z,22.53
2022-07-31T20:46:41.520Z,22.40
2022-07-31T20:49:19.787Z,22.48
2022-07-31T20:52:02.889Z,22.48
2022-07-31T20:54:34.725Z,22.51
2022-07-31T20:57:03.971Z,22.48
2022-07-31T20:59:33.425Z,22.44
2022-07-31T21:02:02.918Z,22.43
2022-07-31T21:04:37.445Z,22.40
2022-07-31T21:07:07.047Z,22.42
2022-07-31T21:09:57.322Z,22.43
2022-07-31T21:12:29.647Z,22.40
2022-07-31T21:15:04.363Z,22.42
2022-07-31T21:17:36.037Z,22.45
2022-07-31T21:20:51.615Z,22.42
2022-07-31T21:23:22.350Z,22.39
2022-07-31T21:25:56.393Z,22.42
2022-07-31T21:28:26.993Z,22.44
2022-07-31T21:30:59.286Z,22.43
2022-07-31T21:33:30.842Z,22.42
2022-07-31T21:38:55.330Z,22.38
2022-07-31T21:41:26.144Z,22.39
2022-07-31T21:43:58.556Z,22.25
2022-07-31T21:46:30.728Z,22.24
2022-07-31T21:49:00.519Z,22.25
2022-07-31T21:51:32.097Z,22.34
2022-07-31T21:54:01.389Z,22.28
2022-07-31T21:56:30.456Z,22.29
2022-07-31T21:58:59.597Z,22.16
2022-07-31T22:01:29.299Z,22.26
2022-07-31T22:03:58.455Z,22.17
2022-07-31T22:06:44.701Z,22.23
2022-07-31T22:09:18.882Z,22.20
2022-07-31T22:12:12.048Z,22.14
2022-07-31T22:14:41.530Z,22.13
2022-07-31T22:17:13.659Z,22.10
2022-07-31T22:19:47.454Z,22.09
2022-07-31T22:22:17.676Z,22.07
2022-07-31T22:24:52.305Z,22.08
2022-07-31T22:27:39.074Z,22.09
2022-07-31T22:30:12.358Z,22.01
2022-07-31T22:32:44.383Z,22.01
2022-07-31T22:35:16.581Z,21.92
2022-07-31T22:37:47.718Z,21.99
2022-07-31T22:40:33.359Z,22.00
2022-07-31T22:43:03.420Z,22.00
2022-07-31T22:45:33.737Z,22.00
2022-07-31T22:48:03.108Z,21.91
2022-07-31T22:50:35.026Z,21.79
2022-07-31T22:53:04.241Z,21.77
2022-07-31T22:55:37.245Z,21.85
2022-07-31T22:58:09.935Z,21.82
2022-07-31T23:00:39.712Z,21.78
2022-07-31T23:03:09.187Z,21.80
2022-07-31T23:06:02.872Z,21.82
2022-07-31T23:08:29.966Z,21.80
2022-07-31T23:11:00.237Z,21.77
2022-07-31T23:13:39.202Z,21.79
2022-07-31T23:16:08.166Z,21.77
2022-07-31T23:18:39.992Z,21.74
2022-07-31T23:21:09.116Z,21.61
2022-07-31T23:23:39.855Z,21.72
2022-07-31T23:26:10.822Z,21.74
2022-07-31T23:28:39.985Z,21.70
2022-07-31T23:31:10.051Z,21.71
2022-07-31T23:33:41.882Z,21.74
2022-07-31T23:36:10.894Z,21.79
2022-07-31T23:38:40.501Z,21.66
2022-07-31T23:41:20.113Z,21.55
2022-07-31T23:43:48.130Z,21.71
2022-07-31T23:46:58.343Z,21.73
2022-07-31T23:49:32.306Z,21.69
2022-07-31T23:52:01.230Z,21.62
2022-07-31T23:54:32.007Z,21.60
2022-07-31T23:57:14.887Z,21.61
2022-07-31T23:59:46.339Z,21.59
